Time;durP1;ratioP1;P1;durP2;ratioP2;P2;SDS_P1;SDS_P2;PMS_P1;PMS_P2;Temp;Humidity;BMP_temperature;BMP_pressure;BME280_temperature;BME280_humidity;BME280_pressure;Samples;Min_cycle;Max_cycle;Signal;HPM_P1;HPM_P2
2024/03/29 00:01:34;;;;;;;0.10;0.10;;;;;;;8.46;67.85;97076.44;7362829;19;20119;-63
2024/03/29 00:04:00;;;;;;;0.10;0.10;;;;;;;8.49;67.56;97078.84;7366250;19;20026;-64
2024/03/29 00:06:25;;;;;;;0.10;0.10;;;;;;;8.45;67.16;97093.00;7359115;19;20609;-63
2024/03/29 00:08:50;;;;;;;0.10;0.10;;;;;;;8.29;67.29;97069.00;7365152;19;19999;-63
2024/03/29 00:11:16;;;;;;;0.10;0.10;;;;;;;8.40;66.76;97096.88;7366445;19;20022;-63
2024/03/29 00:13:41;;;;;;;0.10;0.10;;;;;;;8.21;66.04;97060.91;7361885;19;20002;-64
2024/03/29 00:16:07;;;;;;;0.05;0.05;;;;;;;8.31;66.21;97093.97;7360978;19;20003;-63
2024/03/29 00:18:32;;;;;;;0.10;0.10;;;;;;;8.22;65.98;97088.59;7362191;19;20089;-63
2024/03/29 00:20:58;;;;;;;0.10;0.10;;;;;;;8.27;66.10;97097.72;7366823;19;20086;-63
2024/03/29 00:23:23;;;;;;;0.10;0.10;;;;;;;8.21;65.93;97092.97;7367722;19;20408;-63
2024/03/29 00:25:48;;;;;;;0.10;0.10;;;;;;;8.13;65.65;97084.03;7362194;19;20002;-63
2024/03/29 00:28:14;;;;;;;0.10;0.10;;;;;;;7.95;65.59;97063.59;7363117;19;20101;-63
2024/03/29 00:30:39;;;;;;;0.08;0.08;;;;;;;8.15;65.25;97102.94;7362698;19;20002;-64
2024/03/29 00:33:05;;;;;;;0.00;0.00;;;;;;;8.00;65.45;97084.88;7364836;19;20443;-63
2024/03/29 00:35:30;;;;;;;0.10;0.10;;;;;;;8.08;65.60;97105.16;7356755;19;20003;-63
2024/03/29 00:37:56;;;;;;;0.10;0.10;;;;;;;8.05;66.19;97113.97;7367092;19;20013;-64
2024/03/29 00:40:21;;;;;;;0.00;0.00;;;;;;;8.02;66.36;97101.22;7361455;19;20005;-64
2024/03/29 00:42:47;;;;;;;0.10;0.10;;;;;;;7.99;66.86;97111.81;7364103;19;19998;-63
2024/03/29 00:45:12;;;;;;;0.10;0.10;;;;;;;7.91;67.47;97103.72;7362808;19;20415;-63
2024/03/29 00:47:38;;;;;;;0.00;0.00;;;;;;;7.94;67.36;97110.47;7363851;19;20006;-63
2024/03/29 00:50:03;;;;;;;0.00;0.00;;;;;;;7.74;66.93;97089.28;7363092;19;20756;-63
2024/03/29 00:52:29;;;;;;;0.10;0.10;;;;;;;7.84;66.80;97102.47;7361216;19;20015;-63
2024/03/29 00:54:54;;;;;;;0.00;0.00;;;;;;;7.86;66.50;97111.00;7362302;19;20464;-63
2024/03/29 00:57:19;;;;;;;0.10;0.10;;;;;;;7.82;66.03;97117.34;7362829;19;20027;-63
2024/03/29 00:59:46;;;;;;;0.10;0.10;;;;;;;7.79;66.91;97109.75;7366424;19;20466;-63
2024/03/29 01:02:12;;;;;;;0.10;0.10;;;;;;;7.76;66.98;97116.00;7360227;19;20017;-63
2024/03/29 01:04:38;;;;;;;0.10;0.10;;;;;;;7.56;66.67;97085.38;7361310;19;19998;-63
2024/03/29 01:07:03;;;;;;;0.10;0.10;;;;;;;7.70;66.29;97120.78;7362310;19;20861;-63
2024/03/29 01:09:29;;;;;;;0.00;0.00;;;;;;;7.68;66.23;97118.28;7365480;19;20017;-63
2024/03/29 01:11:55;;;;;;;0.10;0.10;;;;;;;7.62;66.41;97113.53;7361082;19;20845;-63
2024/03/29 01:14:20;;;;;;;0.10;0.10;;;;;;;7.56;66.06;97120.91;7364366;19;20013;-63
2024/03/29 01:16:45;;;;;;;0.10;0.10;;;;;;;7.50;66.50;97117.78;7362505;19;20004;-63
2024/03/29 01:19:11;;;;;;;0.10;0.10;;;;;;;7.56;66.23;97126.09;7362754;19;20339;-63
2024/03/29 01:21:37;;;;;;;0.10;0.10;;;;;;;7.52;66.27;97126.28;7362563;19;20030;-63
2024/03/29 01:24:03;;;;;;;0.10;0.10;;;;;;;7.34;66.61;97101.56;7359984;19;19994;-63
2024/03/29 01:26:28;;;;;;;0.00;0.00;;;;;;;7.48;66.46;97134.38;7363153;19;20489;-64
2024/03/29 01:28:54;;;;;;;0.10;0.10;;;;;;;7.44;67.49;97131.16;7361030;19;20002;-63
2024/03/29 01:31:19;;;;;;;0.10;0.10;;;;;;;7.30;68.22;97110.50;7360372;19;20017;-63
2024/03/29 01:33:44;;;;;;;0.10;0.10;;;;;;;7.34;68.58;97119.72;7356142;19;20040;-63
2024/03/29 01:36:10;;;;;;;0.10;0.10;;;;;;;7.36;68.65;97124.84;7362366;19;20011;-62
2024/03/29 01:38:35;;;;;;;0.10;0.10;;;;;;;7.31;68.85;97127.75;7362355;19;20842;-63
2024/03/29 01:41:01;;;;;;;0.00;0.00;;;;;;;7.33;68.72;97136.25;7363479;19;20001;-63
2024/03/29 01:43:27;;;;;;;0.10;0.10;;;;;;;7.27;68.26;97126.28;7362259;19;20036;-63
2024/03/29 01:45:55;;;;;;;0.10;0.10;;;;;;;7.31;68.84;97142.47;7362121;19;20024;-63
2024/03/29 01:48:25;;;;;;;0.10;0.10;;;;;;;7.28;68.64;97144.31;7361372;19;19995;-63
2024/03/29 01:50:53;;;;;;;0.10;0.10;;;;;;;7.25;68.81;97135.94;7365729;19;20794;-63
2024/03/29 01:53:19;;;;;;;0.10;0.10;;;;;;;7.23;68.32;97140.38;7352120;19;20123;-64
2024/03/29 01:55:45;;;;;;;0.00;0.00;;;;;;;7.12;68.02;97128.13;7363503;19;20596;-63
2024/03/29 01:58:11;;;;;;;0.00;0.00;;;;;;;7.16;67.55;97136.53;7360464;19;20036;-63
2024/03/29 02:00:41;;;;;;;0.10;0.10;;;;;;;7.12;67.67;97137.66;7363628;19;20102;-63
2024/03/29 02:03:12;;;;;;;0.08;0.08;;;;;;;7.09;67.48;97137.84;7363060;19;19998;-63
2024/03/29 02:05:40;;;;;;;0.00;0.00;;;;;;;7.09;67.76;97146.47;7365923;19;20654;-63
2024/03/29 02:08:07;;;;;;;0.00;0.00;;;;;;;7.02;67.86;97143.44;7367904;19;19999;-63
2024/03/29 02:10:32;;;;;;;0.10;0.10;;;;;;;7.00;67.46;97147.91;7367472;19;20015;-64
2024/03/29 02:12:58;;;;;;;0.10;0.10;;;;;;;6.98;67.21;97144.56;7366001;19;20614;-63
2024/03/29 02:15:23;;;;;;;0.10;0.10;;;;;;;6.98;67.30;97141.97;7370403;19;20846;-63
2024/03/29 02:17:51;;;;;;;0.00;0.00;;;;;;;6.86;66.83;97141.97;7370494;19;20125;-63
2024/03/29 02:20:16;;;;;;;0.05;0.05;;;;;;;6.91;67.80;97145.91;7369943;19;20010;-63
2024/03/29 02:22:51;;;;;;;0.00;0.00;;;;;;;6.67;67.92;97111.19;7368238;19;20741;-63
2024/03/29 02:25:16;;;;;;;0.00;0.00;;;;;;;6.86;67.85;97147.97;7370883;19;20461;-63
2024/03/29 02:27:42;;;;;;;0.10;0.10;;;;;;;6.82;67.99;97141.31;7365577;19;20017;-63
2024/03/29 02:30:08;;;;;;;0.10;0.10;;;;;;;6.77;68.61;97143.38;7367128;19;20728;-64
2024/03/29 02:32:33;;;;;;;0.03;0.03;;;;;;;6.75;68.17;97140.06;7368209;19;19998;-64
2024/03/29 02:34:59;;;;;;;0.10;0.10;;;;;;;6.60;68.33;97125.50;7368194;19;19999;-63
2024/03/29 02:37:24;;;;;;;0.10;0.10;;;;;;;6.72;68.30;97145.44;7368866;19;20002;-64
2024/03/29 02:39:49;;;;;;;0.10;0.10;;;;;;;6.67;68.03;97142.31;7360886;19;20002;-63
2024/03/29 02:42:15;;;;;;;0.08;0.08;;;;;;;6.62;68.35;97139.16;7363174;19;20951;-64
2024/03/29 02:44:40;;;;;;;0.10;0.10;;;;;;;6.63;69.04;97136.47;7370338;19;20078;-63
2024/03/29 02:47:06;;;;;;;0.10;0.10;;;;;;;6.63;69.06;97140.81;7366542;19;20474;-64
2024/03/29 02:49:31;;;;;;;0.10;0.10;;;;;;;6.62;69.33;97134.81;7369236;19;20003;-63
2024/03/29 02:51:57;;;;;;;0.10;0.10;;;;;;;6.49;69.30;97114.03;7367472;19;19994;-64
2024/03/29 02:54:22;;;;;;;0.10;0.10;;;;;;;6.60;68.94;97134.09;7364379;19;20403;-63
2024/03/29 02:56:48;;;;;;;0.00;0.00;;;;;;;6.58;69.19;97127.31;7366906;19;20003;-63
2024/03/29 02:59:13;;;;;;;0.10;0.10;;;;;;;6.45;69.19;97104.78;7360714;19;20014;-63
2024/03/29 03:01:40;;;;;;;0.10;0.10;;;;;;;6.61;69.64;97127.16;7363695;19;20062;-64
2024/03/29 03:04:05;;;;;;;0.10;0.10;;;;;;;6.63;69.57;97135.66;7370792;19;20011;-63
2024/03/29 03:06:31;;;;;;;0.10;0.10;;;;;;;6.62;69.78;97128.81;7364981;19;20010;-63
2024/03/29 03:11:40;;;;;;;0.00;0.00;;;;;;;6.50;69.45;97105.34;7364805;19;20014;-63
2024/03/29 03:14:05;;;;;;;0.10;0.10;;;;;;;6.64;69.59;97126.94;7368512;19;20744;-64
2024/03/29 03:16:31;;;;;;;0.10;0.10;;;;;;;6.60;69.52;97126.31;7363363;19;20018;-64
2024/03/29 03:18:56;;;;;;;0.00;0.00;;;;;;;6.60;69.74;97120.31;7359252;19;19999;-64
2024/03/29 03:21:22;;;;;;;0.10;0.10;;;;;;;6.62;70.08;97126.22;7364514;19;20007;-62
2024/03/29 03:23:47;;;;;;;0.10;0.10;;;;;;;6.62;70.23;97134.00;7370408;19;20019;-64
2024/03/29 03:26:12;;;;;;;0.10;0.10;;;;;;;6.52;70.21;97112.16;7363158;19;19998;-64
2024/03/29 03:28:38;;;;;;;0.10;0.10;;;;;;;6.60;70.04;97122.91;7369722;19;20006;-63
2024/03/29 03:31:03;;;;;;;0.05;0.05;;;;;;;6.59;70.23;97122.06;7364836;19;20449;-63
2024/03/29 03:33:29;;;;;;;0.00;0.00;;;;;;;6.57;69.79;97117.91;7369207;19;20115;-64
2024/03/29 03:35:54;;;;;;;0.10;0.10;;;;;;;6.56;70.13;97111.88;7361634;19;20011;-63
2024/03/29 03:38:19;;;;;;;0.10;0.10;;;;;;;6.46;70.07;97098.69;7368164;19;20100;-64
2024/03/29 03:40:45;;;;;;;0.10;0.10;;;;;;;6.53;69.58;97108.66;7367277;19;20920;-64
2024/03/29 03:43:10;;;;;;;0.00;0.00;;;;;;;6.56;70.03;97124.00;7367386;19;20002;-63
2024/03/29 03:45:40;;;;;;;0.10;0.10;;;;;;;6.43;69.84;97114.41;7359245;19;20010;-63
2024/03/29 03:48:08;;;;;;;0.00;0.00;;;;;;;6.54;69.95;97121.53;7368585;19;20003;-63
2024/03/29 03:50:34;;;;;;;0.10;0.10;;;;;;;6.59;70.42;97128.97;7365770;19;20017;-63
2024/03/29 03:52:59;;;;;;;0.10;0.10;;;;;;;6.60;70.41;97130.69;7363762;19;21187;-63
2024/03/29 03:55:25;;;;;;;0.10;0.10;;;;;;;6.62;70.56;97126.22;7367960;19;20431;-64
2024/03/29 03:57:51;;;;;;;0.10;0.10;;;;;;;6.65;70.57;97124.25;7364812;19;20002;-64
2024/03/29 04:00:19;;;;;;;0.00;0.00;;;;;;;6.68;70.93;97123.22;7363768;19;20109;-64
2024/03/29 04:02:49;;;;;;;0.10;0.10;;;;;;;6.73;71.15;97111.63;7368198;19;20414;-64
2024/03/29 04:05:15;;;;;;;0.03;0.03;;;;;;;6.63;71.36;97094.16;7360149;19;20010;-64
2024/03/29 04:07:40;;;;;;;0.10;0.10;;;;;;;6.81;71.28;97113.72;7362379;19;20014;-63
2024/03/29 04:10:06;;;;;;;0.10;0.10;;;;;;;6.76;71.17;97100.22;7364500;19;20018;-63
2024/03/29 04:12:31;;;;;;;0.10;0.10;;;;;;;6.88;70.86;97109.78;7364824;19;20010;-63
2024/03/29 04:14:57;;;;;;;0.10;0.10;;;;;;;6.72;71.17;97089.22;7332826;19;20002;-64
2024/03/29 04:17:23;;;;;;;0.10;0.10;;;;;;;6.86;71.24;97101.28;7367344;19;20363;-64
2024/03/29 04:19:49;;;;;;;0.10;0.10;;;;;;;6.94;71.18;97106.78;7366554;19;20006;-63
2024/03/29 04:22:14;;;;;;;0.10;0.10;;;;;;;6.95;70.66;97107.66;7366520;19;20868;-63
2024/03/29 04:24:39;;;;;;;0.10;0.10;;;;;;;6.95;70.68;97105.06;7366929;19;20668;-63
2024/03/29 04:27:05;;;;;;;0.00;0.00;;;;;;;6.84;70.75;97085.00;7368133;19;20328;-63
2024/03/29 04:29:30;;;;;;;0.10;0.10;;;;;;;6.89;70.75;97101.06;7364612;19;20020;-63
2024/03/29 04:31:55;;;;;;;0.10;0.10;;;;;;;6.80;70.43;97080.13;7363121;19;20374;-64
2024/03/29 04:34:21;;;;;;;0.10;0.10;;;;;;;6.91;70.21;97109.59;7360546;19;20006;-63
2024/03/29 04:36:46;;;;;;;0.10;0.10;;;;;;;6.87;70.73;97108.13;7363528;19;20847;-63
2024/03/29 04:39:12;;;;;;;0.10;0.10;;;;;;;6.78;70.72;97103.53;7362616;19;20010;-63
2024/03/29 04:41:37;;;;;;;0.10;0.10;;;;;;;6.88;70.91;97117.56;7364482;19;20689;-64
2024/03/29 04:44:04;;;;;;;0.10;0.10;;;;;;;6.72;70.87;97089.22;7365515;19;20006;-63
2024/03/29 04:46:30;;;;;;;0.10;0.10;;;;;;;6.72;70.77;97094.41;7366081;19;20010;-64
2024/03/29 04:48:56;;;;;;;0.10;0.10;;;;;;;6.74;71.46;97096.88;7360888;19;19998;-64
2024/03/29 04:51:21;;;;;;;0.10;0.10;;;;;;;6.87;71.04;97102.94;7363352;19;19999;-63
2024/03/29 04:53:46;;;;;;;0.10;0.10;;;;;;;6.93;71.21;97120.69;7366858;19;19998;-63
2024/03/29 04:56:12;;;;;;;0.10;0.10;;;;;;;6.93;70.87;97110.31;7357315;19;20003;-64
2024/03/29 04:58:37;;;;;;;0.10;0.10;;;;;;;6.97;71.34;97116.97;7362090;19;20002;-64
2024/03/29 05:01:03;;;;;;;0.00;0.00;;;;;;;6.85;71.29;97088.44;7363264;19;19999;-63
2024/03/29 05:03:28;;;;;;;0.10;0.10;;;;;;;7.06;71.55;97123.34;7365640;19;19998;-64
2024/03/29 05:05:54;;;;;;;0.10;0.10;;;;;;;6.87;71.24;97095.16;7366900;19;20002;-63
2024/03/29 05:08:22;;;;;;;0.10;0.10;;;;;;;7.13;71.44;97126.34;7360669;19;20010;-64
2024/03/29 05:10:49;;;;;;;0.10;0.10;;;;;;;7.15;71.92;97127.09;7362491;19;20344;-63
2024/03/29 05:13:15;;;;;;;0.08;0.08;;;;;;;7.05;71.69;97110.47;7360596;19;20352;-62
2024/03/29 05:15:40;;;;;;;0.00;0.00;;;;;;;7.11;71.72;97116.09;7362940;19;20013;-64
2024/03/29 05:18:06;;;;;;;0.10;0.10;;;;;;;7.19;71.75;97131.13;7367180;19;20007;-64
2024/03/29 05:20:31;;;;;;;0.10;0.10;;;;;;;7.17;71.55;97130.41;7360047;19;19999;-64
2024/03/29 05:22:58;;;;;;;0.10;0.10;;;;;;;7.16;71.86;97123.56;7362133;19;20003;-64
2024/03/29 05:25:24;;;;;;;0.10;0.10;;;;;;;7.11;71.71;97120.44;7363670;19;20086;-64
2024/03/29 05:27:49;;;;;;;0.08;0.08;;;;;;;7.22;71.78;97143.91;7364784;19;20030;-63
2024/03/29 05:30:15;;;;;;;0.00;0.00;;;;;;;7.19;71.95;97139.75;7356764;19;19995;-64
2024/03/29 05:32:40;;;;;;;0.00;0.00;;;;;;;7.19;72.08;97136.31;7361598;19;20003;-63
2024/03/29 05:35:06;;;;;;;0.08;0.08;;;;;;;7.07;72.33;97113.78;7362464;19;20002;-64
2024/03/29 05:37:31;;;;;;;0.10;0.10;;;;;;;7.22;71.94;97130.94;7365917;19;20484;-64
2024/03/29 05:40:00;;;;;;;0.10;0.10;;;;;;;7.21;72.06;97126.69;7363050;19;20005;-64
2024/03/29 05:42:30;;;;;;;0.10;0.10;;;;;;;7.28;72.39;97138.31;7368388;19;20574;-64
2024/03/29 05:44:55;;;;;;;0.10;0.10;;;;;;;7.27;72.15;97147.84;7372372;19;20018;-64
2024/03/29 05:47:21;;;;;;;0.10;0.10;;;;;;;7.16;72.07;97136.53;7369469;19;20342;-63
2024/03/29 05:49:47;;;;;;;0.10;0.10;;;;;;;7.25;72.33;97148.91;7372737;19;20062;-64
2024/03/29 05:52:13;;;;;;;0.10;0.10;;;;;;;7.24;72.19;97152.41;7369883;19;20001;-64
2024/03/29 05:54:40;;;;;;;0.00;0.00;;;;;;;7.06;72.53;97127.69;7369063;19;20016;-64
2024/03/29 05:57:06;;;;;;;0.10;0.10;;;;;;;7.17;72.28;97153.75;7371006;19;20098;-64
2024/03/29 05:59:32;;;;;;;0.10;0.10;;;;;;;7.16;72.27;97157.28;7373902;19;20020;-64
2024/03/29 06:01:58;;;;;;;0.03;0.03;;;;;;;7.03;71.98;97139.91;7370269;19;19999;-64
2024/03/29 06:04:30;;;;;;;0.10;0.10;;;;;;;7.12;72.17;97161.84;7369014;19;20001;-64
2024/03/29 06:06:57;;;;;;;0.10;0.10;;;;;;;7.11;72.34;97165.38;7370407;19;20930;-64
2024/03/29 06:09:23;;;;;;;0.10;0.10;;;;;;;7.05;72.48;97162.34;7369064;19;20688;-64
2024/03/29 06:11:48;;;;;;;0.10;0.10;;;;;;;7.07;72.25;97176.06;7370440;19;20010;-64
2024/03/29 06:19:23;;;;;;;0.05;0.05;;;;;;;6.96;72.38;97174.97;7368131;19;20027;-63
2024/03/29 06:21:48;;;;;;;0.10;0.10;;;;;;;6.75;72.04;97143.47;7369753;19;20006;-64
2024/03/29 06:24:14;;;;;;;0.08;0.08;;;;;;;6.88;72.13;97172.03;7367179;19;20873;-64
2024/03/29 06:26:41;;;;;;;0.00;0.00;;;;;;;6.78;72.64;97155.41;7370622;19;20025;-65
2024/03/29 06:29:11;;;;;;;0.10;0.10;;;;;;;6.85;72.45;97174.84;7363959;19;19994;-64
2024/03/29 06:31:36;;;;;;;0.10;0.10;;;;;;;6.63;72.37;97135.66;7370654;19;20505;-64
2024/03/29 06:34:01;;;;;;;0.10;0.10;;;;;;;6.81;72.83;97165.59;7357737;19;19998;-64
2024/03/29 06:36:27;;;;;;;0.10;0.10;;;;;;;6.81;72.81;97169.94;7369117;19;20009;-64
2024/03/29 06:38:55;;;;;;;0.10;0.10;;;;;;;6.81;72.99;97155.22;7366815;19;20006;-64
2024/03/29 06:41:21;;;;;;;0.10;0.10;;;;;;;6.79;72.86;97151.88;7370842;19;19995;-64
2024/03/29 06:43:46;;;;;;;0.10;0.10;;;;;;;6.87;73.09;97170.38;7365094;19;20997;-64
2024/03/29 06:46:12;;;;;;;0.05;0.05;;;;;;;6.91;73.33;97171.84;7371628;19;20007;-63
2024/03/29 06:48:38;;;;;;;0.10;0.10;;;;;;;6.95;73.18;97170.72;7365240;19;20007;-63
2024/03/29 06:51:04;;;;;;;0.10;0.10;;;;;;;7.01;73.54;97166.91;7369839;19;20673;-64
2024/03/29 06:53:29;;;;;;;0.10;0.10;;;;;;;7.05;73.08;97173.56;7367219;19;20002;-64
2024/03/29 06:55:56;;;;;;;0.10;0.10;;;;;;;7.13;73.41;97180.84;7361965;19;20003;-64
2024/03/29 06:58:23;;;;;;;0.00;0.00;;;;;;;7.14;73.42;97175.53;7360303;19;20007;-64
2024/03/29 07:00:52;;;;;;;0.10;0.10;;;;;;;7.07;72.82;97144.91;7368838;19;19999;-63
2024/03/29 07:03:18;;;;;;;0.10;0.10;;;;;;;7.36;73.31;97177.56;7368075;19;20005;-63
2024/03/29 07:05:46;;;;;;;0.10;0.10;;;;;;;7.38;73.22;97174.88;7367103;19;20018;-64
2024/03/29 07:08:12;;;;;;;0.10;0.10;;;;;;;7.49;73.14;97191.38;7368597;19;20006;-64
2024/03/29 07:10:37;;;;;;;0.10;0.10;;;;;;;7.56;72.66;97188.41;7363659;19;20015;-64
2024/03/29 07:13:03;;;;;;;0.00;0.00;;;;;;;7.56;72.91;97183.22;7364108;19;20793;-64
2024/03/29 07:15:28;;;;;;;0.10;0.10;;;;;;;7.56;72.31;97168.47;7367477;19;20105;-64
2024/03/29 07:17:54;;;;;;;0.10;0.10;;;;;;;7.67;72.34;97170.34;7368257;19;20510;-64
2024/03/29 07:20:19;;;;;;;0.10;0.10;;;;;;;7.62;72.66;97160.25;7364446;19;19998;-63
2024/03/29 07:22:47;;;;;;;0.10;0.10;;;;;;;7.80;72.78;97186.72;7366826;19;19999;-63
2024/03/29 07:25:13;;;;;;;0.10;0.10;;;;;;;7.86;72.29;97193.31;7369652;19;20039;-64
2024/03/29 07:27:38;;;;;;;0.10;0.10;;;;;;;7.90;72.58;97192.97;7361430;19;20573;-64
2024/03/29 07:30:04;;;;;;;0.10;0.10;;;;;;;7.95;72.63;97196.09;7366015;19;19998;-63
2024/03/29 07:32:31;;;;;;;0.10;0.10;;;;;;;7.95;72.57;97193.50;7362045;19;20034;-64
2024/03/29 07:34:58;;;;;;;0.00;0.00;;;;;;;8.04;72.37;97199.84;7368105;19;20359;-64
2024/03/29 07:37:24;;;;;;;0.10;0.10;;;;;;;7.98;72.39;97185.50;7362869;19;19998;-64
2024/03/29 07:39:49;;;;;;;0.00;0.00;;;;;;;8.13;72.35;97196.59;7364011;19;20448;-64
2024/03/29 07:42:16;;;;;;;0.10;0.10;;;;;;;8.19;72.73;97200.53;7365930;19;20457;-64
2024/03/29 07:44:41;;;;;;;0.10;0.10;;;;;;;8.25;72.35;97200.13;7364465;19;20114;-64
2024/03/29 07:47:07;;;;;;;0.10;0.10;;;;;;;8.29;72.50;97198.97;7357232;19;20098;-64
2024/03/29 07:49:32;;;;;;;0.10;0.10;;;;;;;8.16;72.45;97177.34;7365693;19;20003;-63
2024/03/29 07:51:59;;;;;;;0.10;0.10;;;;;;;8.38;72.25;97208.78;7363710;19;20086;-64
2024/03/29 07:54:24;;;;;;;0.10;0.10;;;;;;;8.12;72.01;97155.97;7368190;19;20018;-63
2024/03/29 07:56:50;;;;;;;0.08;0.08;;;;;;;8.46;72.02;97211.66;7362444;19;20588;-64
2024/03/29 07:59:19;;;;;;;0.10;0.10;;;;;;;8.50;72.18;97207.91;7368932;19;20006;-63
2024/03/29 08:01:44;;;;;;;0.08;0.08;;;;;;;8.53;72.05;97202.50;7359843;19;20449;-64
2024/03/29 08:04:10;;;;;;;0.10;0.10;;;;;;;8.52;72.07;97198.25;7366845;19;20007;-64
2024/03/29 08:06:35;;;;;;;0.10;0.10;;;;;;;8.65;72.21;97211.19;7364070;19;20077;-64
2024/03/29 08:09:00;;;;;;;0.10;0.10;;;;;;;8.64;72.17;97203.50;7360938;19;20014;-63
2024/03/29 08:11:26;;;;;;;0.10;0.10;;;;;;;8.78;72.14;97217.19;7362726;19;20351;-63
2024/03/29 08:13:51;;;;;;;0.10;0.10;;;;;;;8.84;71.87;97214.16;7364037;19;20034;-64
2024/03/29 08:16:17;;;;;;;0.10;0.10;;;;;;;8.89;72.21;97213.84;7364648;19;20085;-64
2024/03/29 08:18:45;;;;;;;0.10;0.10;;;;;;;9.00;71.96;97226.91;7363902;19;20072;-63
2024/03/29 08:21:11;;;;;;;0.10;0.10;;;;;;;8.94;71.68;97206.53;7363341;19;20007;-63
2024/03/29 08:23:41;;;;;;;0.10;0.10;;;;;;;9.13;72.12;97226.84;7362475;19;20011;-63
2024/03/29 08:26:07;;;;;;;0.00;0.00;;;;;;;9.12;71.98;97216.53;7367522;19;20029;-63
2024/03/29 08:28:32;;;;;;;0.10;0.10;;;;;;;9.18;71.73;97223.94;7358177;19;19998;-64
2024/03/29 08:31:02;;;;;;;0.10;0.10;;;;;;;9.25;71.86;97230.34;7366918;19;20002;-64
2024/03/29 08:33:28;;;;;;;0.10;0.10;;;;;;;9.28;71.78;97224.91;7363432;19;20003;-63
2024/03/29 08:35:53;;;;;;;0.10;0.10;;;;;;;9.29;71.56;97237.81;7359334;19;20041;-64
2024/03/29 08:38:19;;;;;;;0.10;0.10;;;;;;;9.29;71.46;97216.97;7360258;19;20085;-64
2024/03/29 08:40:47;;;;;;;0.00;0.00;;;;;;;9.43;71.72;97229.00;7364991;19;20058;-64
2024/03/29 08:43:14;;;;;;;0.10;0.10;;;;;;;9.43;71.71;97215.97;7364175;19;20006;-63
2024/03/29 08:45:40;;;;;;;0.10;0.10;;;;;;;9.66;71.27;97221.25;7362359;19;20006;-64
2024/03/29 08:48:09;;;;;;;0.10;0.10;;;;;;;9.86;71.49;97215.38;7365754;19;20042;-64
2024/03/29 08:50:37;;;;;;;0.10;0.10;;;;;;;10.19;70.65;97242.41;7361453;19;19999;-64
2024/03/29 08:53:04;;;;;;;0.17;0.17;;;;;;;10.45;70.43;97236.09;7366273;19;20678;-64
2024/03/29 08:55:33;;;;;;;0.10;0.10;;;;;;;10.74;70.42;97243.41;7363072;19;20491;-64
2024/03/29 08:57:59;;;;;;;0.10;0.10;;;;;;;10.81;69.93;97214.09;7348711;19;20003;-64
2024/03/29 09:00:26;;;;;;;0.10;0.10;;;;;;;11.26;69.44;97247.09;7364006;19;19999;-64
2024/03/29 09:02:51;;;;;;;0.20;0.20;;;;;;;11.51;69.24;97236.31;7364687;19;20015;-64
2024/03/29 09:05:16;;;;;;;0.10;0.10;;;;;;;11.82;69.14;97249.50;7364074;19;20033;-64
2024/03/29 09:07:42;;;;;;;0.10;0.10;;;;;;;12.03;68.62;97237.25;7363122;19;20408;-64
2024/03/29 09:10:08;;;;;;;0.00;0.00;;;;;;;12.25;68.18;97238.06;7362772;19;20047;-64
2024/03/29 09:12:33;;;;;;;0.10;0.10;;;;;;;12.41;67.08;97254.91;7364488;19;20014;-64
2024/03/29 09:14:59;;;;;;;0.15;0.15;;;;;;;12.52;66.47;97246.19;7362262;19;20978;-64
2024/03/29 09:17:25;;;;;;;0.10;0.10;;;;;;;12.53;65.62;97242.59;7361526;19;20394;-64
2024/03/29 09:19:53;;;;;;;0.10;0.10;;;;;;;12.51;65.83;97236.66;7363462;19;19999;-64
2024/03/29 09:22:19;;;;;;;0.10;0.10;;;;;;;12.54;65.62;97241.63;7362545;19;20006;-63
2024/03/29 09:24:44;;;;;;;0.10;0.10;;;;;;;12.60;65.80;97248.94;7365975;19;20003;-64
2024/03/29 09:27:10;;;;;;;0.20;0.20;;;;;;;12.65;65.68;97257.22;7362325;19;20082;-63
2024/03/29 09:29:35;;;;;;;0.10;0.10;;;;;;;12.72;65.93;97253.16;7365167;19;20023;-64
2024/03/29 09:32:03;;;;;;;0.17;0.17;;;;;;;12.87;65.67;97261.44;7362447;19;20026;-63
2024/03/29 09:34:30;;;;;;;0.10;0.10;;;;;;;13.09;65.68;97257.78;7363250;19;20359;-64
2024/03/29 09:36:56;;;;;;;0.10;0.10;;;;;;;13.30;65.43;97256.88;7361198;19;20013;-64
2024/03/29 09:39:21;;;;;;;0.10;0.10;;;;;;;13.57;64.19;97253.59;7358920;19;20453;-64
2024/03/29 09:41:47;;;;;;;0.10;0.10;;;;;;;13.72;64.28;97255.66;7360664;19;20007;-63
2024/03/29 09:44:12;;;;;;;0.10;0.10;;;;;;;13.85;63.55;97257.19;7363864;19;20010;-63
2024/03/29 09:46:39;;;;;;;0.10;0.10;;;;;;;13.92;62.97;97247.78;7360856;19;20011;-63
2024/03/29 09:49:06;;;;;;;0.10;0.10;;;;;;;14.05;63.03;97257.97;7362628;19;20051;-63
2024/03/29 09:51:32;;;;;;;0.10;0.10;;;;;;;14.11;62.77;97252.97;7362762;19;20098;-63
2024/03/29 09:54:00;;;;;;;0.10;0.10;;;;;;;14.30;63.44;97261.78;7361871;19;21249;-63
2024/03/29 09:56:26;;;;;;;0.10;0.10;;;;;;;14.50;62.80;97260.78;7357733;19;20119;-63
2024/03/29 09:58:52;;;;;;;0.10;0.10;;;;;;;14.70;63.09;97265.00;7362389;19;20006;-63
2024/03/29 10:01:18;;;;;;;0.10;0.10;;;;;;;14.88;61.49;97256.34;7364568;19;20006;-64
2024/03/29 10:03:48;;;;;;;0.10;0.10;;;;;;;15.12;62.01;97267.13;7356514;19;20006;-63
2024/03/29 10:06:14;;;;;;;0.10;0.10;;;;;;;15.30;61.61;97265.34;7352819;19;20018;-63
2024/03/29 10:08:40;;;;;;;0.10;0.10;;;;;;;15.50;60.08;97265.22;7360086;19;20018;-63
2024/03/29 10:11:05;;;;;;;0.10;0.10;;;;;;;15.64;60.99;97259.47;7357393;19;20025;-63
2024/03/29 10:13:31;;;;;;;0.20;0.20;;;;;;;15.85;59.81;97263.59;7359670;19;20009;-63
2024/03/29 10:15:57;;;;;;;0.10;0.10;;;;;;;16.01;58.05;97267.16;7360016;19;20466;-63
2024/03/29 10:18:23;;;;;;;0.10;0.10;;;;;;;16.16;57.72;97258.72;7358687;19;20666;-63
2024/03/29 10:21:09;;;;;;;0.10;0.10;;;;;;;16.30;61.26;97240.56;7359298;19;20036;-64
2024/03/29 10:23:35;;;;;;;0.10;0.10;;;;;;;16.49;57.13;97257.13;7358894;19;20019;-63
2024/03/29 10:26:02;;;;;;;0.20;0.20;;;;;;;16.61;58.62;97259.31;7354676;19;20009;-63
2024/03/29 10:28:33;;;;;;;0.10;0.10;;;;;;;16.82;56.27;97256.31;7368421;19;20003;-63
2024/03/29 10:30:58;;;;;;;0.10;0.10;;;;;;;16.94;56.08;97253.41;7365576;19;20022;-62
2024/03/29 10:33:28;;;;;;;0.10;0.10;;;;;;;17.20;57.96;97261.25;7368602;19;20003;-63
2024/03/29 10:35:55;;;;;;;0.10;0.10;;;;;;;17.42;54.31;97257.16;7364425;19;21251;-63
2024/03/29 10:38:21;;;;;;;0.10;0.10;;;;;;;17.73;53.45;97266.13;7366414;19;19994;-63
2024/03/29 10:40:48;;;;;;;0.10;0.10;;;;;;;18.00;51.90;97257.09;7364857;19;20033;-63
2024/03/29 10:43:16;;;;;;;0.10;0.10;;;;;;;18.15;50.84;97259.88;7368257;19;20025;-63
2024/03/29 10:45:44;;;;;;;0.10;0.10;;;;;;;18.23;51.33;97256.41;7367152;19;20017;-63
2024/03/29 10:48:10;;;;;;;0.10;0.10;;;;;;;18.16;52.13;97258.91;7369994;19;19999;-63
2024/03/29 10:50:39;;;;;;;0.10;0.10;;;;;;;18.19;50.49;97265.63;7365663;19;20008;-63
2024/03/29 10:53:05;;;;;;;0.10;0.10;;;;;;;18.11;50.96;97255.94;7366727;19;20002;-63
2024/03/29 10:55:33;;;;;;;0.10;0.10;;;;;;;18.24;52.31;97264.16;7368940;19;20003;-63
2024/03/29 10:58:00;;;;;;;0.10;0.10;;;;;;;18.32;50.42;97272.06;7368125;19;20827;-63
2024/03/29 11:00:28;;;;;;;0.10;0.10;;;;;;;18.48;50.60;97270.38;7368369;19;20561;-63
2024/03/29 11:03:13;;;;;;;0.10;0.10;;;;;;;18.53;52.73;97268.06;7368903;19;20411;-63
2024/03/29 11:05:45;;;;;;;0.10;0.10;;;;;;;18.36;51.35;97270.75;7365030;19;20030;-63
2024/03/29 11:08:11;;;;;;;0.10;0.10;;;;;;;18.14;49.74;97279.34;7364737;19;20042;-63
2024/03/29 11:10:45;;;;;;;0.10;0.10;;;;;;;17.95;51.36;97266.50;7363480;19;20506;-63
2024/03/29 11:13:26;;;;;;;0.10;0.10;;;;;;;17.74;51.94;97275.72;7360539;19;20023;-63
2024/03/29 11:15:53;;;;;;;0.10;0.10;;;;;;;17.32;51.32;97247.59;7364571;19;20110;-63
2024/03/29 11:18:20;;;;;;;0.10;0.10;;;;;;;17.31;50.50;97271.50;7368242;19;20006;-63
2024/03/29 11:20:50;;;;;;;0.15;0.15;;;;;;;17.13;52.09;97274.22;7367516;19;20034;-63
2024/03/29 11:23:18;;;;;;;0.10;0.10;;;;;;;16.95;53.97;97270.88;7366284;19;20645;-63
2024/03/29 11:25:45;;;;;;;0.10;0.10;;;;;;;16.82;54.38;97266.84;7365331;19;20725;-63
2024/03/29 11:28:17;;;;;;;;;;;;;;;16.78;56.22;97280.53;7365859;19;19999;-63
2024/03/29 11:30:46;;;;;;;0.10;0.10;;;;;;;16.55;53.69;97270.50;7366518;19;19917;-63
2024/03/29 11:33:34;;;;;;;0.10;0.10;;;;;;;16.47;55.45;97278.34;7361521;19;20006;-63
2024/03/29 11:36:24;;;;;;;0.17;0.17;;;;;;;16.32;54.59;97283.38;7365956;19;20006;-63
2024/03/29 11:38:54;;;;;;;0.10;0.10;;;;;;;16.20;54.23;97284.59;7362802;19;20692;-63
2024/03/29 11:41:23;;;;;;;0.10;0.10;;;;;;;15.99;53.99;97271.75;7364286;19;20011;-63
2024/03/29 11:43:50;;;;;;;0.10;0.10;;;;;;;15.99;53.38;97297.25;7365524;19;20051;-63